Fenelon Falls, Canada
Current Conditions -  °F | °C
As of 3:00 AM on Friday 19 Dec 2014 (Local Time) from CYPQ Reporting Station
NA  
Wind Chill:   Ceiling: NA
Heat Index: 19°   Visibility: 9mi
Dew Point: 14°   Wind: 9mph
Humidity: 80%   Direction: 340°NNW
Pressure: 30.1"   Gusts: NA
Location:  44.53°N, 78.75°W
Report Text: CYPQ 190800Z AUTO 34008KT 9SM M07/M10 A3010 RMK CLD MISG SLP202
Loading
Personal Weather Stations






























Interactive Weather Map New forecast layout! Learn more

10-Day Weather Forecast

Advertisements
Track Severe Weather on mobile